Time;durP1;ratioP1;P1;durP2;ratioP2;P2;SDS_P1;SDS_P2;PMS_P1;PMS_P2;Temp;Humidity;BMP_temperature;BMP_pressure;BME280_temperature;BME280_humidity;BME280_pressure;Samples;Min_cycle;Max_cycle;Signal;HPM_P1;HPM_P2
2022/05/15 00:02:10;;;;;;;;;5.00;5.00;;;;;21.81;44.60;98709.31;4844399;28;102353;-83
2022/05/15 00:04:38;;;;;;;;;4.33;4.00;;;;;21.79;44.64;98705.97;4834920;28;104171;-83
2022/05/15 00:07:05;;;;;;;;;4.33;4.00;;;;;21.79;44.60;98710.69;4814949;28;103980;-79
2022/05/15 00:09:32;;;;;;;;;5.00;5.00;;;;;21.78;45.05;98703.53;4850345;28;102187;-83
2022/05/15 00:12:00;;;;;;;;;4.33;4.33;;;;;21.77;44.69;98707.38;4847886;28;102352;-83
2022/05/15 00:14:27;;;;;;;;;6.00;5.67;;;;;21.76;44.60;98703.78;4864128;28;104266;-84
2022/05/15 00:16:54;;;;;;;;;5.00;4.00;;;;;21.77;45.00;98707.38;4860033;28;103234;-83
2022/05/15 00:19:21;;;;;;;;;4.67;4.00;;;;;21.75;44.70;98706.78;4861249;28;103491;-83
2022/05/15 00:21:49;;;;;;;;;4.00;4.00;;;;;21.72;44.57;98704.59;4858676;28;102453;-84
2022/05/15 00:24:16;;;;;;;;;5.00;5.00;;;;;21.74;44.58;98703.25;4859803;28;104188;-83
2022/05/15 00:26:43;;;;;;;;;3.00;3.00;;;;;21.74;44.74;98713.41;4862189;28;102258;-83
2022/05/15 00:29:10;;;;;;;;;5.00;4.33;;;;;21.74;44.58;98710.66;4859297;28;102667;-83
2022/05/15 00:31:38;;;;;;;;;5.00;5.00;;;;;21.73;44.91;98706.25;4859883;28;102237;-83
2022/05/15 00:34:05;;;;;;;;;5.00;4.67;;;;;21.73;44.99;98707.09;4861155;28;104292;-82
2022/05/15 00:36:33;;;;;;;;;5.67;5.00;;;;;21.72;44.43;98699.09;4857858;28;103664;-84
2022/05/15 00:39:01;;;;;;;;;5.00;5.00;;;;;21.72;44.76;98704.59;4856139;28;104364;-83
2022/05/15 00:41:29;;;;;;;;;6.00;5.00;;;;;21.72;44.79;98704.59;4860811;28;102256;-83
2022/05/15 00:43:56;;;;;;;;;4.00;4.00;;;;;21.70;44.57;98696.59;4861426;28;103297;-83
2022/05/15 00:46:26;;;;;;;;;4.00;4.00;;;;;21.69;44.99;98708.72;4864690;28;102091;-83
2022/05/15 00:48:54;;;;;;;;;4.00;4.00;;;;;21.69;44.68;98710.66;4852225;28;102611;-83
2022/05/15 00:51:24;;;;;;;;;5.00;5.00;;;;;;;;4861447;28;102354;-83
2022/05/15 00:53:54;;;;;;;;;3.67;3.67;;;;;21.65;44.89;98704.88;4862911;28;104059;-83
2022/05/15 00:56:22;;;;;;;;;5.00;5.00;;;;;21.64;44.86;98708.72;4839932;28;102495;-83
2022/05/15 00:58:52;;;;;;;;;5.00;5.00;;;;;21.64;44.62;98705.13;4840182;28;102115;-83
2022/05/15 01:01:19;;;;;;;;;4.00;4.00;;;;;21.65;44.64;98709.53;4852721;28;102430;-83
2022/05/15 01:03:47;;;;;;;;;4.33;4.33;;;;;21.64;44.96;98707.88;4842105;28;103567;-84
2022/05/15 01:06:14;;;;;;;;;4.00;4.00;;;;;21.64;44.53;98707.88;4811337;28;102649;-84
2022/05/15 01:08:41;;;;;;;;;4.33;3.67;;;;;21.63;44.87;98707.03;4837310;28;102475;-83
2022/05/15 01:11:11;;;;;;;;;7.00;6.33;;;;;21.63;44.55;98707.03;4834451;28;104391;-82
2022/05/15 01:13:39;;;;;;;;;4.33;4.00;;;;;21.63;44.64;98701.53;4822445;28;104316;-82
2022/05/15 01:16:07;;;;;;;;;4.67;4.00;;;;;21.61;44.47;98713.94;4861636;28;102091;-84
2022/05/15 01:18:36;;;;;;;;;5.00;5.00;;;;;21.60;44.65;98713.09;4855370;28;102502;-83
2022/05/15 01:21:36;;;;;;;;;6.00;6.00;;;;;21.57;44.48;98718.31;4844392;28;102269;-83
2022/05/15 01:24:05;;;;;;;;;5.00;4.67;;;;;21.59;45.00;98710.59;4852210;28;110595;-84
2022/05/15 01:26:33;;;;;;;;;4.67;4.67;;;;;21.59;44.67;98710.59;4850007;28;102535;-83
2022/05/15 01:29:00;;;;;;;;;4.67;4.67;;;;;21.57;44.53;98702.59;4851817;28;102374;-83
2022/05/15 01:31:28;;;;;;;;;4.00;4.00;;;;;21.58;44.43;98703.44;4861013;28;105894;-83
2022/05/15 01:33:55;;;;;;;;;5.00;5.00;;;;;21.57;44.70;98708.13;4859997;28;104024;-83
2022/05/15 01:36:23;;;;;;;;;5.00;4.00;;;;;21.57;44.74;98707.31;4854607;28;102591;-83
2022/05/15 01:38:50;;;;;;;;;6.33;5.33;;;;;21.57;44.53;98713.63;4860316;28;102076;-83
2022/05/15 01:41:18;;;;;;;;;5.33;5.33;;;;;21.57;44.60;98719.13;4855516;28;103048;-83
2022/05/15 01:43:47;;;;;;;;;7.00;5.67;;;;;21.56;44.30;98716.66;4852730;28;103237;-83
2022/05/15 01:46:14;;;;;;;;;5.00;5.00;;;;;21.56;44.73;98719.41;4851440;28;101993;-83
2022/05/15 01:48:42;;;;;;;;;6.00;5.00;;;;;21.55;44.77;98715.84;4855665;28;102266;-83
2022/05/15 01:51:09;;;;;;;;;6.00;6.00;;;;;21.53;44.38;98719.94;4858807;28;104447;-83
2022/05/15 01:53:36;;;;;;;;;4.33;4.33;;;;;21.54;44.47;98718.84;4865905;28;104135;-83
2022/05/15 01:56:04;;;;;;;;;4.33;4.33;;;;;21.52;44.75;98713.63;4859060;28;103293;-84
2022/05/15 01:58:31;;;;;;;;;6.00;5.00;;;;;21.53;44.95;98719.94;4857284;28;102377;-83
2022/05/15 02:00:58;;;;;;;;;5.00;5.00;;;;;21.53;44.44;98717.19;4862759;28;104081;-83
2022/05/15 02:03:26;;;;;;;;;6.00;6.00;;;;;21.53;44.64;98719.94;4849280;28;104561;-84
2022/05/15 02:05:53;;;;;;;;;5.67;4.67;;;;;21.53;44.50;98711.69;4856884;28;102231;-84
2022/05/15 02:08:20;;;;;;;;;5.00;4.67;;;;;21.52;44.42;98721.88;4855576;28;103068;-83
2022/05/15 02:10:48;;;;;;;;;5.67;5.67;;;;;21.50;44.97;98713.06;4844682;28;102265;-83
2022/05/15 02:13:15;;;;;;;;;6.00;6.00;;;;;21.50;44.43;98712.22;4837548;28;104071;-83
2022/05/15 02:15:42;;;;;;;;;5.00;4.33;;;;;21.50;44.77;98718.56;4855702;28;102442;-83
2022/05/15 02:18:09;;;;;;;;;6.00;5.00;;;;;21.50;44.97;98710.31;4851638;28;102228;-83
2022/05/15 02:20:37;;;;;;;;;6.00;5.00;;;;;21.48;44.68;98717.19;4858654;28;102452;-83
2022/05/15 02:23:04;;;;;;;;;8.00;7.00;;;;;21.48;44.53;98719.94;4859498;28;108777;-84
2022/05/15 02:25:31;;;;;;;;;6.00;5.00;;;;;21.49;44.95;98716.06;4858419;28;103073;-83
2022/05/15 02:27:59;;;;;;;;;6.33;6.00;;;;;21.49;44.85;98724.31;4858951;28;102308;-83
2022/05/15 02:30:26;;;;;;;;;6.33;6.00;;;;;21.49;44.34;98721.56;4860549;28;102808;-83
2022/05/15 02:32:53;;;;;;;;;7.00;5.67;;;;;21.46;44.45;98725.69;4861783;28;104046;-83
2022/05/15 02:35:20;;;;;;;;;5.67;5.67;;;;;21.49;44.73;98718.81;4860967;28;103392;-83
2022/05/15 02:37:48;;;;;;;;;6.00;6.00;;;;;21.48;44.43;98728.19;4861120;28;102503;-83
2022/05/15 02:40:17;;;;;;;;;7.00;6.67;;;;;21.48;44.56;98726.22;4861816;28;102057;-83
2022/05/15 02:42:45;;;;;;;;;6.33;6.00;;;;;21.47;44.88;98721.84;4844689;28;103980;-83
2022/05/15 02:45:12;;;;;;;;;5.67;5.67;;;;;21.47;44.67;98729.28;4858202;28;102126;-83
2022/05/15 02:47:40;;;;;;;;;7.33;7.00;;;;;21.46;44.32;98722.13;4847673;28;102136;-82
2022/05/15 02:52:55;;;;;;;;;6.00;6.00;;;;;21.44;44.37;98718.78;4859333;28;109164;-83
2022/05/15 02:55:22;;;;;;;;;6.00;5.00;;;;;21.46;44.71;98727.63;4856817;28;102521;-83
2022/05/15 02:57:50;;;;;;;;;6.00;5.00;;;;;21.43;44.67;98728.16;4858246;28;102167;-83
2022/05/15 03:00:18;;;;;;;;;6.67;6.67;;;;;21.44;44.88;98733.38;4838632;28;102527;-83
2022/05/15 03:02:45;;;;;;;;;7.00;6.33;;;;;21.44;44.44;98732.53;4840875;28;104121;-83
2022/05/15 03:05:13;;;;;;;;;5.67;5.00;;;;;21.45;44.58;98723.19;4858098;28;102370;-84
2022/05/15 03:07:42;;;;;;;;;4.00;4.00;;;;;21.44;44.68;98724.28;4860387;28;102338;-83
2022/05/15 03:10:11;;;;;;;;;6.00;6.00;;;;;21.43;44.87;98722.66;4860310;28;103222;-82
2022/05/15 03:12:39;;;;;;;;;6.00;6.00;;;;;21.43;44.78;98722.66;4844101;28;105014;-82
2022/05/15 03:15:07;;;;;;;;;7.00;6.00;;;;;21.42;44.55;98723.75;4846209;28;102053;-84
2022/05/15 03:17:34;;;;;;;;;5.33;4.67;;;;;21.41;44.32;98722.09;4862143;28;104063;-84
2022/05/15 03:20:03;;;;;;;;;7.00;6.00;;;;;21.40;44.38;98734.19;4860271;28;102169;-83
2022/05/15 03:22:30;;;;;;;;;6.33;6.33;;;;;21.40;44.82;98723.19;4860782;28;104117;-84
2022/05/15 03:24:57;;;;;;;;;9.00;7.33;;;;;21.40;44.40;98728.69;4859560;28;102493;-83
2022/05/15 03:27:24;;;;;;;;;7.33;7.00;;;;;21.38;44.82;98731.72;4857841;28;102696;-83
2022/05/15 03:29:52;;;;;;;;;7.00;7.00;;;;;21.38;44.51;98733.63;4861992;28;102676;-83
2022/05/15 03:32:19;;;;;;;;;6.00;6.00;;;;;21.39;44.83;98735.31;4858828;28;103963;-83
2022/05/15 03:34:46;;;;;;;;;7.00;7.00;;;;;21.40;44.74;98742.44;4854435;28;102169;-83
2022/05/15 03:37:13;;;;;;;;;6.00;6.00;;;;;21.40;44.79;98745.19;4857911;28;102385;-83
2022/05/15 03:39:40;;;;;;;;;6.67;6.67;;;;;21.39;44.56;98743.56;4857936;28;102227;-83
2022/05/15 03:42:08;;;;;;;;;7.67;7.33;;;;;21.41;44.25;98752.34;4863607;28;104291;-84
2022/05/15 03:44:37;;;;;;;;;7.33;6.00;;;;;21.39;44.76;98749.06;4857717;28;102721;-84
2022/05/15 03:47:07;;;;;;;;;5.33;5.33;;;;;21.39;44.24;98743.56;4860832;28;104361;-83
2022/05/15 03:49:34;;;;;;;;;7.00;6.00;;;;;21.38;44.77;98747.38;4839325;28;102642;-83
2022/05/15 03:52:03;;;;;;;;;4.33;4.00;;;;;21.35;44.45;98748.72;4858713;28;104027;-84
2022/05/15 03:54:30;;;;;;;;;7.00;5.67;;;;;21.38;44.64;98761.97;4862255;28;102185;-84
2022/05/15 03:56:57;;;;;;;;;6.67;6.00;;;;;21.36;44.92;98751.22;4862852;28;102446;-83
2022/05/15 03:59:27;;;;;;;;;5.00;4.33;;;;;21.36;44.49;98742.97;4860734;28;102681;-83
2022/05/15 04:01:54;;;;;;;;;7.00;7.00;;;;;21.38;44.80;98752.91;4861285;28;104192;-83
2022/05/15 04:04:21;;;;;;;;;6.00;5.00;;;;;21.38;44.33;98761.16;4858304;28;102573;-83
2022/05/15 04:06:49;;;;;;;;;6.00;6.00;;;;;21.38;44.54;98758.41;4862207;28;102281;-83
2022/05/15 04:09:16;;;;;;;;;7.00;7.00;;;;;21.35;44.86;98755.06;4863066;28;103280;-83
2022/05/15 04:11:43;;;;;;;;;7.00;6.00;;;;;21.37;44.82;98760.31;4861984;28;104234;-83
2022/05/15 04:14:10;;;;;;;;;6.67;5.67;;;;;21.36;44.76;98756.72;4861119;28;102053;-82
2022/05/15 04:16:37;;;;;;;;;6.33;6.33;;;;;21.35;44.77;98757.00;4859566;28;102517;-84
2022/05/15 04:19:05;;;;;;;;;8.67;7.33;;;;;21.34;44.41;98764.41;4861467;28;102165;-84
2022/05/15 04:21:40;;;;;;;;;6.33;6.00;;;;;21.35;44.10;98759.75;4826754;28;104045;-84
2022/05/15 04:24:12;;;;;;;;;6.33;6.00;;;;;21.36;44.44;98764.97;4853101;28;102315;-83
2022/05/15 04:26:40;;;;;;;;;5.33;5.33;;;;;21.35;44.92;98768.00;4859770;28;102133;-84
2022/05/15 04:29:07;;;;;;;;;7.67;7.00;;;;;21.35;44.33;98766.06;4857154;28;103243;-83
2022/05/15 04:31:35;;;;;;;;;6.33;6.33;;;;;21.35;44.54;98766.06;4862601;28;104249;-84
2022/05/15 04:34:02;;;;;;;;;8.33;7.00;;;;;21.38;44.54;98769.41;4854369;28;102220;-83
2022/05/15 04:36:32;;;;;;;;;5.33;5.33;;;;;21.38;44.34;98772.16;4850723;28;102193;-83
2022/05/15 04:39:01;;;;;;;;;8.00;7.00;;;;;21.36;44.18;98772.41;4860991;28;102193;-84
2022/05/15 04:41:29;;;;;;;;;8.00;7.00;;;;;21.36;44.84;98778.75;4850916;28;104171;-83
2022/05/15 04:43:56;;;;;;;;;6.33;6.00;;;;;21.35;44.29;98777.06;4845598;28;102064;-83
2022/05/15 04:46:25;;;;;;;;;8.00;7.33;;;;;21.36;44.60;98776.00;4861890;28;102377;-84
2022/05/15 04:48:53;;;;;;;;;7.00;6.00;;;;;21.35;44.12;98784.50;4844758;28;102530;-83
2022/05/15 04:51:20;;;;;;;;;7.00;6.67;;;;;21.34;44.42;98783.66;4855211;28;104115;-83
2022/05/15 04:53:47;;;;;;;;;6.33;6.33;;;;;21.36;44.65;98783.41;4845279;28;102666;-83
2022/05/15 04:56:14;;;;;;;;;7.00;7.00;;;;;21.35;44.27;98793.56;4856154;28;102592;-83
2022/05/15 04:58:41;;;;;;;;;8.00;7.00;;;;;21.36;44.51;98795.25;4862648;28;102583;-83
2022/05/15 05:01:08;;;;;;;;;9.67;9.33;;;;;21.37;44.34;98801.56;4859170;28;104345;-83
2022/05/15 05:03:35;;;;;;;;;6.33;6.00;;;;;21.38;44.20;98807.91;4858609;28;103252;-83
2022/05/15 05:06:03;;;;;;;;;6.00;6.00;;;;;21.38;44.30;98807.91;4859168;28;102514;-83
2022/05/15 05:08:30;;;;;;;;;6.33;6.33;;;;;21.38;43.96;98807.91;4853664;28;102096;-83
2022/05/15 05:10:57;;;;;;;;;6.00;6.00;;;;;21.39;44.41;98820.56;4859099;28;104024;-83
2022/05/15 05:13:24;;;;;;;;;7.00;7.00;;;;;21.38;44.64;98814.25;4841328;28;102428;-83
2022/05/15 05:15:51;;;;;;;;;7.33;7.00;;;;;21.38;44.15;98813.41;4857726;28;102498;-83
2022/05/15 05:18:18;;;;;;;;;6.00;6.00;;;;;21.36;44.43;98806.25;4858189;28;102415;-83
2022/05/15 05:20:45;;;;;;;;;6.00;6.00;;;;;21.36;44.56;98824.66;4852623;28;104339;-83
2022/05/15 05:23:13;;;;;;;;;8.67;8.67;;;;;21.37;44.00;98820.84;4829679;28;102191;-83
2022/05/15 05:25:40;;;;;;;;;8.33;7.00;;;;;21.34;44.66;98813.91;4861585;28;102382;-83
2022/05/15 05:28:07;;;;;;;;;6.00;6.00;;;;;21.37;44.44;98820.84;4861004;28;102260;-83
2022/05/15 05:30:34;;;;;;;;;7.67;7.33;;;;;21.38;44.41;98813.41;4856554;28;104244;-83
2022/05/15 05:33:01;;;;;;;;;8.00;8.00;;;;;21.36;44.81;98817.25;4857414;28;102462;-83
2022/05/15 05:35:28;;;;;;;;;7.33;7.00;;;;;21.36;44.24;98833.75;4859244;28;102225;-83
2022/05/15 05:37:56;;;;;;;;;7.00;7.00;;;;;21.36;44.05;98822.75;4862711;28;102251;-83
2022/05/15 05:40:23;;;;;;;;;8.67;7.33;;;;;21.36;44.01;98821.91;4855909;28;104264;-83
2022/05/15 05:42:50;;;;;;;;;6.00;6.00;;;;;21.37;44.49;98834.59;4856297;28;102436;-83
2022/05/15 05:45:17;;;;;;;;;5.67;5.67;;;;;21.36;44.34;98833.75;4861493;28;102113;-83
2022/05/15 05:47:46;;;;;;;;;6.00;6.00;;;;;21.38;44.55;98841.75;4862104;28;103237;-83
2022/05/15 05:50:13;;;;;;;;;8.67;8.00;;;;;21.36;44.40;98847.50;4861889;28;104168;-83
2022/05/15 05:52:41;;;;;;;;;7.00;6.00;;;;;21.36;43.94;98839.25;4864437;28;105422;-84
2022/05/15 05:55:10;;;;;;;;;6.67;6.00;;;;;21.35;44.09;98837.59;4859318;28;102241;-83
2022/05/15 05:57:38;;;;;;;;;7.00;6.33;;;;;21.35;44.39;98843.09;4861639;28;102152;-83
2022/05/15 06:00:06;;;;;;;;;7.67;7.67;;;;;21.35;44.76;98843.09;4859386;28;104038;-83
2022/05/15 06:02:33;;;;;;;;;7.67;7.67;;;;;21.34;44.36;98841.44;4860610;28;102367;-83
2022/05/15 06:05:00;;;;;;;;;7.00;6.67;;;;;21.35;44.78;98847.75;4854110;28;102424;-84
2022/05/15 06:07:28;;;;;;;;;7.33;7.33;;;;;21.34;44.79;98841.44;4863045;28;102298;-83
2022/05/15 06:09:55;;;;;;;;;6.67;6.67;;;;;21.32;44.27;98837.31;4857771;28;104225;-84
2022/05/15 06:12:23;;;;;;;;;7.00;7.00;;;;;21.33;44.87;98850.81;4858240;28;102607;-83
2022/05/15 06:14:51;;;;;;;;;8.67;8.00;;;;;21.31;44.72;98847.47;4861190;28;102173;-83
2022/05/15 06:17:25;;;;;;;;;6.67;6.00;;;;;21.30;44.42;98851.31;4862142;28;102144;-83
2022/05/15 06:19:52;;;;;;;;;6.00;6.00;;;;;21.31;44.69;98846.63;4856573;28;104254;-83
2022/05/15 06:22:19;;;;;;;;;7.67;7.00;;;;;21.31;44.45;98847.47;4859751;28;102305;-83
2022/05/15 06:24:46;;;;;;;;;7.67;7.33;;;;;21.30;44.91;98845.81;4863399;28;104350;-83
2022/05/15 06:27:14;;;;;;;;;10.00;8.00;;;;;21.32;44.54;98849.13;4843407;28;102218;-83
2022/05/15 06:29:41;;;;;;;;;5.67;5.67;;;;;21.34;44.87;98855.19;4862583;28;104386;-84
2022/05/15 06:32:08;;;;;;;;;8.00;8.00;;;;;21.34;44.86;98854.38;4861941;28;102108;-83
2022/05/15 06:34:35;;;;;;;;;8.67;7.33;;;;;21.32;44.36;98857.38;4863125;28;101975;-83
2022/05/15 06:37:02;;;;;;;;;7.00;6.67;;;;;21.32;44.78;98848.31;4860908;28;103296;-83
2022/05/15 06:39:31;;;;;;;;;8.00;7.00;;;;;21.32;44.88;98853.81;4854993;28;104110;-84
2022/05/15 06:42:00;;;;;;;;;5.67;5.67;;;;;21.32;44.60;98848.31;4860480;28;102373;-83
2022/05/15 06:44:27;;;;;;;;;7.67;7.67;;;;;21.32;44.88;98865.66;4856500;28;110329;-83
2022/05/15 06:46:55;;;;;;;;;8.00;7.00;;;;;21.33;45.09;98861.81;4859245;28;102818;-83
2022/05/15 06:49:22;;;;;;;;;7.00;6.00;;;;;21.33;44.87;98861.81;4863048;28;104281;-83
2022/05/15 06:51:49;;;;;;;;;8.00;8.00;;;;;21.32;44.27;98868.41;4859666;28;102157;-83
2022/05/15 06:54:16;;;;;;;;;6.00;5.00;;;;;21.34;44.71;98862.63;4859205;28;102249;-83
2022/05/15 06:59:31;;;;;;;;;6.67;4.67;;;;;21.35;44.19;98862.34;4854483;28;103775;-83
2022/05/15 07:01:58;;;;;;;;;10.67;8.00;;;;;21.36;44.33;98854.94;4855814;28;101991;-83
2022/05/15 07:04:26;;;;;;;;;7.33;6.33;;;;;21.36;44.45;98865.94;4852213;28;102363;-83
2022/05/15 07:06:53;;;;;;;;;8.33;7.33;;;;;21.34;44.76;98857.13;4860078;28;102376;-83
2022/05/15 07:09:20;;;;;;;;;7.00;6.33;;;;;21.34;44.32;98857.13;4854746;28;104062;-83
2022/05/15 07:11:47;;;;;;;;;5.33;5.33;;;;;21.34;44.38;98871.69;4861655;28;102622;-83
2022/05/15 07:14:19;;;;;;;;;6.67;6.33;;;;;21.33;44.43;98867.31;4858363;28;103167;-83
2022/05/15 07:16:46;;;;;;;;;8.33;8.00;;;;;21.34;44.51;98868.13;4857013;28;102594;-83
2022/05/15 07:19:13;;;;;;;;;7.00;7.00;;;;;21.34;44.84;98857.13;4852741;28;104326;-82
2022/05/15 07:21:40;;;;;;;;;7.00;6.67;;;;;21.35;44.79;98858.78;4858518;28;101979;-83
2022/05/15 07:24:07;;;;;;;;;6.00;6.00;;;;;21.35;44.76;98856.84;4849847;28;102134;-83
2022/05/15 07:26:34;;;;;;;;;7.00;6.33;;;;;21.35;44.74;98859.59;4855129;28;102474;-83
2022/05/15 07:29:01;;;;;;;;;7.33;6.33;;;;;21.38;44.24;98857.44;4852399;28;104129;-83
2022/05/15 07:31:28;;;;;;;;;7.00;7.00;;;;;21.39;44.68;98859.09;4859517;28;102411;-83
2022/05/15 07:33:56;;;;;;;;;6.00;6.00;;;;;21.38;44.08;98863.75;4857800;28;102694;-83
2022/05/15 07:36:23;;;;;;;;;6.33;6.00;;;;;21.37;44.83;98862.09;4855484;28;103967;-83
2022/05/15 07:38:50;;;;;;;;;6.67;6.67;;;;;21.38;44.51;98862.94;4855522;28;104069;-83
2022/05/15 07:41:17;;;;;;;;;6.00;5.67;;;;;21.37;44.84;98873.09;4859634;28;102508;-82
2022/05/15 07:43:44;;;;;;;;;9.00;6.33;;;;;21.39;44.80;98872.84;4857630;28;102433;-82
2022/05/15 07:46:11;;;;;;;;;6.67;6.67;;;;;21.39;44.34;98875.59;4865735;28;102332;-83
2022/05/15 07:48:39;;;;;;;;;5.00;5.00;;;;;21.38;44.35;98865.69;4860145;28;109675;-82
2022/05/15 07:51:06;;;;;;;;;5.67;5.67;;;;;21.38;44.25;98876.69;4858585;28;102346;-83
2022/05/15 07:53:33;;;;;;;;;6.67;6.00;;;;;21.39;44.18;98867.34;4845258;28;102214;-82
2022/05/15 07:56:03;;;;;;;;;6.00;6.00;;;;;21.39;44.31;98881.09;4863072;28;102117;-82
2022/05/15 07:58:30;;;;;;;;;6.00;5.00;;;;;21.40;44.47;98868.97;4855150;28;104066;-83
2022/05/15 08:00:57;;;;;;;;;6.67;5.67;;;;;21.41;44.29;98867.91;4857706;28;102236;-83
2022/05/15 08:03:24;;;;;;;;;6.00;6.00;;;;;21.41;44.24;98871.47;4857052;28;102418;-83
2022/05/15 08:08:37;;;;;;;;;5.00;5.00;;;;;21.41;44.67;98876.97;4857522;28;104337;-83
2022/05/15 08:11:04;;;;;;;;;6.00;6.00;;;;;21.41;44.64;98885.22;4859335;28;103194;-83
2022/05/15 08:13:31;;;;;;;;;6.67;5.67;;;;;21.42;44.19;98880.56;4857047;28;102457;-83
2022/05/15 08:15:59;;;;;;;;;7.00;6.00;;;;;21.40;44.79;98875.31;4842751;28;102249;-82
2022/05/15 08:23:58;;;;;;;;;5.67;5.67;;;;;21.42;44.56;98891.56;4856318;28;102455;-82
2022/05/15 08:26:26;;;;;;;;;7.00;7.00;;;;;21.42;44.08;98894.31;4859399;28;102683;-82
2022/05/15 08:28:53;;;;;;;;;6.67;5.00;;;;;21.42;44.38;98878.66;4857786;28;104058;-82
2022/05/15 08:31:21;;;;;;;;;6.00;6.00;;;;;21.44;44.85;98884.69;4853097;28;102006;-82
2022/05/15 08:33:49;;;;;;;;;6.00;5.33;;;;;21.43;44.76;98883.06;4839692;28;103433;-82
2022/05/15 08:36:16;;;;;;;;;6.00;5.00;;;;;21.43;44.37;98876.72;4860854;28;102230;-81
2022/05/15 08:38:46;;;;;;;;;7.00;6.00;;;;;21.43;44.27;98888.56;4864704;28;103357;-83
2022/05/15 08:41:31;;;;;;;;;4.33;4.33;;;;;21.44;44.59;98883.88;4856932;28;102420;-82
2022/05/15 08:44:19;;;;;;;;;5.00;5.00;;;;;21.44;44.55;98886.63;4859795;28;102223;-83
2022/05/15 08:46:49;;;;;;;;;4.33;4.33;;;;;21.44;44.36;98876.44;4850406;28;102515;-82
2022/05/15 08:49:20;;;;;;;;;5.00;5.00;;;;;21.45;44.44;98880.84;4860773;28;104298;-83
2022/05/15 08:52:08;;;;;;;;;6.67;5.00;;;;;21.46;44.85;98888.03;4861458;28;102734;-82
2022/05/15 08:54:53;;;;;;;;;5.00;5.00;;;;;21.45;44.59;98882.78;4864136;28;102152;-83
2022/05/15 08:57:26;;;;;;;;;6.67;5.00;;;;;21.46;44.61;98884.44;4825834;28;102216;-83
2022/05/15 08:59:57;;;;;;;;;7.00;7.00;;;;;21.46;44.30;98884.44;4851867;28;104073;-82
2022/05/15 09:02:25;;;;;;;;;5.00;5.00;;;;;21.48;44.63;98879.50;4835752;28;110575;-82
2022/05/15 09:04:52;;;;;;;;;6.00;6.00;;;;;21.48;44.61;98879.50;4853929;28;102341;-83
2022/05/15 09:07:24;;;;;;;;;5.00;5.00;;;;;21.48;44.81;98883.06;4860835;28;102261;-83
2022/05/15 09:10:12;;;;;;;;;4.00;4.00;;;;;21.48;45.11;98885.03;4859870;28;104283;-83
2022/05/15 09:12:41;;;;;;;;;4.00;4.00;;;;;21.49;44.59;98883.91;4841312;28;102190;-83
2022/05/15 09:15:13;;;;;;;;;6.00;5.00;;;;;21.48;44.77;98893.28;4836394;28;102303;-83
2022/05/15 09:17:43;;;;;;;;;6.00;6.00;;;;;21.49;44.60;98881.16;4861736;28;102129;-83
2022/05/15 09:20:26;;;;;;;;;6.33;6.00;;;;;21.49;44.57;98887.50;4855446;28;110188;-83
2022/05/15 09:23:22;;;;;;;;;4.67;4.33;;;;;21.51;44.24;98895.50;4860068;28;102383;-82
2022/05/15 09:25:52;;;;;;;;;4.67;4.67;;;;;21.50;44.21;98891.91;4850595;28;103508;-82
2022/05/15 09:28:19;;;;;;;;;6.00;5.67;;;;;21.51;44.63;98893.56;4863036;28;102178;-82
2022/05/15 09:30:48;;;;;;;;;5.00;5.00;;;;;21.53;44.35;98894.13;4859800;28;104018;-82
2022/05/15 09:33:33;;;;;;;;;4.33;4.33;;;;;21.53;44.78;98901.53;4858453;28;102205;-82
2022/05/15 09:36:20;;;;;;;;;4.00;4.00;;;;;21.52;44.57;98897.97;4849789;28;102616;-83
2022/05/15 09:38:49;;;;;;;;;5.00;4.00;;;;;21.53;44.56;98898.78;4861000;28;102686;-82
2022/05/15 09:44:30;;;;;;;;;4.67;4.00;;;;;21.54;44.20;98892.19;4855098;28;103611;-81
2022/05/15 09:47:10;;;;;;;;;4.00;4.00;;;;;21.54;44.36;98890.28;4858373;28;102354;-83
2022/05/15 09:49:37;;;;;;;;;4.00;4.00;;;;;21.53;44.56;98898.78;4860222;28;102402;-83
2022/05/15 09:52:11;;;;;;;;;4.33;4.33;;;;;21.54;44.72;98892.19;4857482;28;104058;-83
2022/05/15 09:54:38;;;;;;;;;5.67;5.67;;;;;21.54;44.86;98895.78;4843922;28;102206;-83
2022/05/15 09:57:25;;;;;;;;;6.67;6.33;;;;;21.55;44.48;98907.63;4861723;28;102006;-83
2022/05/15 10:00:07;;;;;;;;;5.33;5.33;;;;;21.55;44.30;98910.38;4859613;28;102178;-83
2022/05/15 10:02:49;;;;;;;;;5.67;5.00;;;;;21.56;44.52;98901.03;4843639;28;104076;-83
2022/05/15 10:05:27;;;;;;;;;6.00;6.00;;;;;21.56;44.27;98885.34;4851991;28;102372;-82
2022/05/15 10:08:05;;;;;;;;;6.00;6.00;;;;;21.58;44.15;98896.06;4858785;28;102533;-83
2022/05/15 10:10:46;;;;;;;;;4.00;4.00;;;;;21.59;44.72;98892.22;4857170;28;102367;-83
2022/05/15 10:13:33;;;;;;;;;5.33;5.33;;;;;21.59;44.13;98897.75;4840232;28;109186;-83
2022/05/15 10:16:22;;;;;;;;;5.00;4.00;;;;;21.59;44.15;98903.25;4856517;28;102248;-83
2022/05/15 10:19:01;;;;;;;;;5.33;4.33;;;;;21.58;44.26;98896.06;4839906;28;102061;-82
2022/05/15 10:21:43;;;;;;;;;5.67;5.33;;;;;21.58;44.35;98901.56;4845533;28;102513;-83
2022/05/15 10:24:27;;;;;;;;;5.67;5.33;;;;;21.59;44.67;98894.97;4838680;28;109032;-83
2022/05/15 10:27:11;;;;;;;;;3.67;3.00;;;;;21.59;44.18;98889.47;4841387;28;102458;-82
2022/05/15 10:29:41;;;;;;;;;4.67;4.67;;;;;21.61;44.54;98901.06;4843874;28;102666;-83
2022/05/15 10:32:20;;;;;;;;;4.00;3.67;;;;;21.60;44.07;98897.47;4857978;28;102315;-83
2022/05/15 10:34:47;;;;;;;;;5.00;5.00;;;;;21.62;44.54;98894.44;4853936;28;109014;-82
2022/05/15 10:37:29;;;;;;;;;3.67;3.67;;;;;21.61;44.09;98885.38;4861578;28;102149;-83
2022/05/15 10:40:03;;;;;;;;;5.00;5.00;;;;;21.63;44.11;98887.84;4862050;28;102680;-83
2022/05/15 10:42:42;;;;;;;;;4.00;4.00;;;;;21.62;44.14;98883.44;4842509;28;102526;-82
2022/05/15 10:45:15;;;;;;;;;5.33;5.00;;;;;21.63;44.36;98876.84;4855814;28;104152;-82
2022/05/15 10:48:04;;;;;;;;;4.00;4.00;;;;;21.62;44.64;98888.94;4861564;28;102191;-83
2022/05/15 10:50:41;;;;;;;;;4.00;4.00;;;;;21.62;44.20;98881.50;4856044;28;103011;-83
2022/05/15 10:59:44;;;;;;;;;5.33;4.67;;;;;21.67;44.60;98888.97;4842627;28;102177;-82
2022/05/15 11:02:35;;;;;;;;;4.00;4.00;;;;;21.68;44.18;98880.47;4858208;28;102217;-83
2022/05/15 11:05:30;;;;;;;;;5.00;5.00;;;;;21.69;44.52;98875.78;4854689;28;103448;-83
2022/05/15 11:08:27;;;;;;;;;3.67;3.67;;;;;21.68;44.33;98877.72;4842580;28;109007;-82
2022/05/15 11:11:14;;;;;;;;;3.67;3.33;;;;;21.68;44.38;98879.63;4850967;28;103056;-83
2022/05/15 11:13:54;;;;;;;;;2.67;2.67;;;;;21.69;44.23;98873.03;4843008;28;104879;-83
2022/05/15 11:16:48;;;;;;;;;3.67;3.67;;;;;21.69;44.10;98865.63;4842266;28;102708;-82
2022/05/15 11:19:35;;;;;;;;;5.00;4.33;;;;;21.70;44.54;98867.25;4810655;28;108895;-83
2022/05/15 11:22:50;;;;;;;;;5.67;4.00;;;;;21.70;44.49;98872.75;4841691;28;101993;-83
2022/05/15 11:25:29;;;;;;;;;4.33;4.00;;;;;21.72;44.60;98861.50;4835437;28;102209;-82
2022/05/15 11:28:20;;;;;;;;;5.00;4.67;;;;;21.71;44.56;98852.41;4859183;28;102246;-83
2022/05/15 11:30:56;;;;;;;;;3.67;3.67;;;;;21.73;44.58;98852.13;4853519;28;108956;-82
2022/05/15 11:33:48;;;;;;;;;2.00;2.00;;;;;21.74;44.37;98848.31;4803325;28;102050;-82
2022/05/15 11:36:15;;;;;;;;;3.00;3.00;;;;;21.75;44.35;98853.50;4845021;28;102323;-82
2022/05/15 11:39:13;;;;;;;;;4.00;4.00;;;;;21.76;44.22;98866.19;4860178;28;102250;-82
2022/05/15 11:41:43;;;;;;;;;3.67;3.67;;;;;21.76;44.54;98857.94;4859393;28;108694;-82
2022/05/15 11:44:20;;;;;;;;;2.67;2.67;;;;;21.77;44.09;98856.84;4863734;28;102412;-83
2022/05/15 11:46:54;;;;;;;;;5.33;4.33;;;;;21.79;43.91;98859.34;4853892;28;105644;-82
2022/05/15 11:49:57;;;;;;;;;4.00;3.00;;;;;21.78;44.07;98842.00;4862295;28;102723;-83
2022/05/15 11:52:40;;;;;;;;;4.67;4.67;;;;;21.77;44.17;98856.00;4858050;28;109229;-83
2022/05/15 11:55:35;;;;;;;;;4.00;4.00;;;;;21.81;44.16;98846.13;4852721;28;102328;-82
2022/05/15 11:58:26;;;;;;;;;3.33;3.33;;;;;21.82;43.84;98850.53;4851409;28;102251;-83
2022/05/15 12:01:07;;;;;;;;;4.00;4.00;;;;;21.84;44.45;98845.56;4853435;28;102239;-82
2022/05/15 12:03:42;;;;;;;;;3.33;3.00;;;;;21.85;44.03;98852.75;4829473;28;104345;-82
2022/05/15 12:06:11;;;;;;;;;4.33;3.67;;;;;21.86;44.16;98848.06;4851873;28;102508;-82
2022/05/15 12:08:39;;;;;;;;;3.33;3.33;;;;;21.87;44.41;98849.72;4842648;28;102058;-82